Time;durP1;ratioP1;P1;durP2;ratioP2;P2;SDS_P1;SDS_P2;PMS_P1;PMS_P2;Temp;Humidity;BMP_temperature;BMP_pressure;BME280_temperature;BME280_humidity;BME280_pressure;Samples;Min_cycle;Max_cycle;Signal;HPM_P1;HPM_P2
2024/02/01 00:00:11;;;;;;;16.90;15.23;;;5.70;91.10;;;;;;5074969;28;20680;-86
2024/02/01 00:02:36;;;;;;;20.63;18.53;;;5.70;91.10;;;;;;5074731;28;20171;-86
2024/02/01 00:05:03;;;;;;;23.03;20.30;;;5.80;91.00;;;;;;5092908;28;20191;-87
2024/02/01 00:07:28;;;;;;;23.07;17.90;;;5.80;91.10;;;;;;5078233;28;20186;-87
2024/02/01 00:09:54;;;;;;;17.93;15.90;;;5.80;91.10;;;;;;5097095;28;20181;-87
2024/02/01 00:12:19;;;;;;;19.90;18.20;;;5.80;91.20;;;;;;5078675;28;20198;-87
2024/02/01 00:14:45;;;;;;;21.80;19.40;;;5.80;91.30;;;;;;5078669;28;20186;-86
2024/02/01 00:17:11;;;;;;;21.90;18.43;;;5.80;91.40;;;;;;5078507;28;20191;-87
2024/02/01 00:19:36;;;;;;;23.63;19.27;;;5.80;91.50;;;;;;5097000;28;20167;-86
2024/02/01 00:22:02;;;;;;;18.33;16.53;;;5.80;91.60;;;;;;5078456;28;20175;-87
2024/02/01 00:24:27;;;;;;;22.77;17.97;;;5.80;91.60;;;;;;5078436;28;20670;-87
2024/02/01 00:26:53;;;;;;;14.73;13.37;;;5.80;91.80;;;;;;5078402;28;20666;-86
2024/02/01 00:29:18;;;;;;;22.23;15.80;;;5.80;92.00;;;;;;5078349;28;20171;-86
2024/02/01 00:31:44;;;;;;;19.37;17.43;;;5.90;92.00;;;;;;5078313;28;20213;-87
2024/02/01 00:34:09;;;;;;;21.13;18.90;;;5.80;92.00;;;;;;5078262;28;20167;-87
2024/02/01 00:36:35;;;;;;;24.47;20.90;;;5.90;92.10;;;;;;5096588;28;20190;-87
2024/02/01 00:39:00;;;;;;;22.13;19.33;;;5.90;92.10;;;;;;5078252;28;20521;-87
2024/02/01 00:41:26;;;;;;;20.17;18.10;;;5.90;92.20;;;;;;5078027;28;20179;-87
2024/02/01 00:43:52;;;;;;;18.50;16.63;;;5.90;92.30;;;;;;5078107;28;20182;-87
2024/02/01 00:46:17;;;;;;;20.33;18.33;;;5.90;92.30;;;;;;5077944;28;20198;-87
2024/02/01 00:48:43;;;;;;;22.47;19.63;;;5.90;92.50;;;;;;5096226;28;20190;-87
2024/02/01 00:51:08;;;;;;;20.37;17.93;;;6.00;92.50;;;;;;5096537;28;20195;-86
2024/02/01 00:53:34;;;;;;;22.17;19.87;;;5.90;92.50;;;;;;5077863;28;20661;-86
2024/02/01 00:56:00;;;;;;;22.10;17.70;;;5.90;92.60;;;;;;5077811;28;20178;-87
2024/02/01 00:58:25;;;;;;;18.13;15.97;;;5.90;92.70;;;;;;5077734;28;20178;-87
2024/02/01 01:00:51;;;;;;;20.63;18.43;;;5.90;92.80;;;;;;5095836;28;20182;-87
2024/02/01 01:03:16;;;;;;;17.93;16.07;;;6.00;92.90;;;;;;5077659;28;20240;-87
2024/02/01 01:05:43;;;;;;;27.40;21.20;;;6.00;93.00;;;;;;5078496;28;20218;-87
2024/02/01 01:08:09;;;;;;;24.73;15.43;;;5.90;93.10;;;;;;5077598;28;20198;-88
2024/02/01 01:10:35;;;;;;;15.73;13.47;;;6.00;93.20;;;;;;5077691;28;20666;-87
2024/02/01 01:13:00;;;;;;;26.77;22.73;;;5.90;93.50;;;;;;5077584;28;20182;-86
2024/02/01 01:15:26;;;;;;;23.10;21.00;;;5.90;93.60;;;;;;5077596;28;20618;-87
2024/02/01 01:17:51;;;;;;;28.67;25.57;;;5.90;93.80;;;;;;5094612;28;20191;-87
2024/02/01 01:20:17;;;;;;;21.23;19.33;;;5.90;93.90;;;;;;5077632;28;20178;-87
2024/02/01 01:22:42;;;;;;;25.90;23.43;;;5.90;94.10;;;;;;5077473;28;20530;-87
2024/02/01 01:25:08;;;;;;;29.33;20.67;;;5.90;94.30;;;;;;5095814;28;20166;-87
2024/02/01 01:27:34;;;;;;;31.17;27.07;;;5.80;94.30;;;;;;5077349;28;20566;-87
2024/02/01 01:29:59;;;;;;;18.40;16.60;;;5.90;94.40;;;;;;5077251;28;20171;-88
2024/02/01 01:32:25;;;;;;;29.33;26.40;;;5.80;94.50;;;;;;5077072;28;20206;-88
2024/02/01 01:34:50;;;;;;;21.27;19.27;;;5.80;94.50;;;;;;5077180;28;20235;-87
2024/02/01 01:37:16;;;;;;;22.50;14.70;;;5.90;94.70;;;;;;5095462;28;20603;-86
2024/02/01 01:39:41;;;;;;;31.75;28.35;;;5.90;94.80;;;;;;5095372;28;20171;-86
2024/02/01 01:42:07;;;;;;;27.97;24.93;;;5.90;94.90;;;;;;5076917;28;20197;-86
2024/02/01 01:44:32;;;;;;;29.87;23.70;;;5.90;95.00;;;;;;5076987;28;20719;-86
2024/02/01 01:46:58;;;;;;;22.80;20.60;;;5.90;95.00;;;;;;5076782;28;20198;-86
2024/02/01 01:49:24;;;;;;;24.47;19.63;;;5.90;95.00;;;;;;5094843;28;20178;-86
2024/02/01 01:51:54;;;;;;;17.63;14.43;;;5.90;95.10;;;;;;5076686;28;20669;-86
2024/02/01 01:54:21;;;;;;;12.50;10.67;;;5.90;95.20;;;;;;5076707;28;20179;-86
2024/02/01 01:56:48;;;;;;;19.77;17.27;;;5.90;95.20;;;;;;5095046;28;20658;-86
2024/02/01 01:59:15;;;;;;;25.87;20.83;;;5.90;95.30;;;;;;5094552;28;20187;-86
2024/02/01 02:01:47;;;;;;;27.93;17.67;;;6.00;95.40;;;;;;5094650;28;20189;-86
2024/02/01 02:04:17;;;;;;;22.83;19.07;;;6.00;95.40;;;;;;5094755;28;20191;-86
2024/02/01 02:06:43;;;;;;;27.27;19.63;;;6.00;95.40;;;;;;5076448;28;20249;-86
2024/02/01 02:09:12;;;;;;;21.57;15.37;;;6.00;95.40;;;;;;5076349;28;20212;-86
2024/02/01 02:11:44;;;;;;;17.77;14.60;;;6.00;95.40;;;;;;5094378;28;20731;-86
2024/02/01 02:14:17;;;;;;;21.60;17.60;;;6.00;95.50;;;;;;5076421;28;20591;-86
2024/02/01 02:16:43;;;;;;;22.77;19.73;;;6.10;95.50;;;;;;5076216;28;20199;-87
2024/02/01 02:19:11;;;;;;;21.50;18.33;;;6.00;95.50;;;;;;5094283;28;20171;-87
2024/02/01 02:21:47;;;;;;;21.60;19.30;;;6.10;95.50;;;;;;5076025;28;20270;-86
2024/02/01 02:24:19;;;;;;;21.77;17.93;;;6.10;95.60;;;;;;5076385;28;20174;-86
2024/02/01 02:26:47;;;;;;;18.73;15.60;;;6.10;95.60;;;;;;5094038;28;20191;-86
2024/02/01 02:29:14;;;;;;;22.47;16.60;;;6.20;95.70;;;;;;5075931;28;20183;-86
2024/02/01 02:31:40;;;;;;;19.17;17.17;;;6.20;95.70;;;;;;5075886;28;20213;-86
2024/02/01 02:34:06;;;;;;;17.13;15.30;;;6.20;95.70;;;;;;5093956;28;20179;-86
2024/02/01 02:36:32;;;;;;;17.60;15.60;;;6.30;95.70;;;;;;5075847;28;20247;-87
2024/02/01 02:38:57;;;;;;;25.27;16.47;;;6.30;95.60;;;;;;5075880;28;20182;-86
2024/02/01 02:41:23;;;;;;;18.23;15.77;;;6.30;95.70;;;;;;5075804;28;20257;-87
2024/02/01 02:43:49;;;;;;;21.87;16.37;;;6.30;95.70;;;;;;5094171;28;20177;-87
2024/02/01 02:46:15;;;;;;;22.47;15.33;;;6.30;95.70;;;;;;5093836;28;20191;-87
2024/02/01 02:48:40;;;;;;;24.60;15.83;;;6.40;95.70;;;;;;5075807;28;20591;-87
2024/02/01 02:51:06;;;;;;;21.43;13.10;;;6.40;95.60;;;;;;5075605;28;20202;-87
2024/02/01 02:53:31;;;;;;;21.83;12.17;;;6.40;95.60;;;;;;5075520;28;20182;-87
2024/02/01 02:56:00;;;;;;;27.17;13.17;;;6.40;95.60;;;;;;5075606;28;20194;-88
2024/02/01 02:58:25;;;;;;;32.47;12.03;;;6.40;95.60;;;;;;5075405;28;20177;-87
2024/02/01 03:00:51;;;;;;;27.53;11.53;;;6.50;95.50;;;;;;5093694;28;20167;-87
2024/02/01 03:03:17;;;;;;;28.50;12.40;;;6.50;95.50;;;;;;5075343;28;20186;-87
2024/02/01 03:05:43;;;;;;;35.17;11.17;;;6.50;95.40;;;;;;5075392;28;20266;-87
2024/02/01 03:08:09;;;;;;;34.80;11.70;;;6.40;95.30;;;;;;5075345;28;20221;-87
2024/02/01 03:10:38;;;;;;;34.60;12.10;;;6.40;95.20;;;;;;5075280;28;20213;-87
2024/02/01 03:13:09;;;;;;;33.77;11.43;;;6.40;95.10;;;;;;5093400;28;20179;-87
2024/02/01 03:15:37;;;;;;;32.90;10.17;;;6.30;95.00;;;;;;5093484;28;20182;-87
2024/02/01 03:18:03;;;;;;;51.57;11.43;;;6.30;95.00;;;;;;5075140;28;20232;-87
2024/02/01 03:20:29;;;;;;;31.63;9.67;;;6.20;94.90;;;;;;5075188;28;20211;-87
2024/02/01 03:22:55;;;;;;;36.07;9.63;;;6.20;94.80;;;;;;5075238;28;20699;-87
2024/02/01 03:25:32;;;;;;;49.40;12.00;;;6.00;94.70;;;;;;5075226;28;20167;-87
2024/02/01 03:28:03;;;;;;;31.37;10.40;;;6.10;94.70;;;;;;5093337;28;20566;-87
2024/02/01 03:30:29;;;;;;;45.47;11.30;;;6.10;94.60;;;;;;5075156;28;20546;-87
2024/02/01 03:32:56;;;;;;;40.50;11.67;;;6.00;94.50;;;;;;5075082;28;20212;-87
2024/02/01 03:35:22;;;;;;;43.93;11.90;;;5.90;94.50;;;;;;5075178;28;20178;-87
2024/02/01 03:37:49;;;;;;;54.47;12.53;;;6.00;94.40;;;;;;5075175;28;20200;-87
2024/02/01 03:40:18;;;;;;;32.27;12.40;;;5.90;94.30;;;;;;5075413;28;20257;-87
2024/02/01 03:42:45;;;;;;;31.80;10.93;;;5.80;94.20;;;;;;5079156;28;20249;-87
2024/02/01 03:45:11;;;;;;;41.50;11.83;;;5.80;94.20;;;;;;5079226;28;20178;-87
2024/02/01 03:47:36;;;;;;;48.47;12.87;;;5.80;94.10;;;;;;5079051;28;20190;-87
2024/02/01 03:50:02;;;;;;;43.63;12.17;;;5.70;94.00;;;;;;5121441;22;20236;-91
2024/02/01 03:52:28;;;;;;;39.20;12.00;;;5.80;94.00;;;;;;5079520;28;20204;-91
2024/02/01 03:54:54;;;;;;;32.93;12.50;;;5.70;93.90;;;;;;5079085;28;20183;-91
2024/02/01 03:57:20;;;;;;;42.83;11.13;;;5.70;93.90;;;;;;5079461;28;20540;-91
2024/02/01 03:59:46;;;;;;;47.17;14.33;;;5.60;93.80;;;;;;5078954;28;20224;-91
2024/02/01 04:02:15;;;;;;;45.03;18.57;;;5.50;93.80;;;;;;5079721;28;20183;-90
2024/02/01 04:04:47;;;;;;;52.13;19.67;;;5.50;93.80;;;;;;5097478;28;20175;-90
2024/02/01 04:07:16;;;;;;;38.90;17.27;;;5.50;93.70;;;;;;5079024;28;20265;-91
2024/02/01 04:09:43;;;;;;;53.83;18.27;;;5.50;93.70;;;;;;5078807;28;20194;-91
2024/02/01 04:12:09;;;;;;;45.97;17.93;;;5.40;93.60;;;;;;5079663;28;20205;-91
2024/02/01 04:14:34;;;;;;;48.20;19.90;;;5.40;93.50;;;;;;5078978;28;20178;-91
2024/02/01 04:17:00;;;;;;;40.30;19.40;;;5.40;93.50;;;;;;5079722;28;20186;-91
2024/02/01 04:19:25;;;;;;;44.30;18.40;;;5.30;93.50;;;;;;5078556;28;20190;-91
2024/02/01 04:21:51;;;;;;;41.10;18.57;;;5.30;93.40;;;;;;5078608;28;20186;-91
2024/02/01 04:24:16;;;;;;;40.67;18.80;;;5.30;93.30;;;;;;5078614;28;20179;-91
2024/02/01 04:26:42;;;;;;;46.47;19.60;;;5.20;93.20;;;;;;5078459;28;20714;-90
2024/02/01 04:29:09;;;;;;;49.33;19.87;;;5.10;93.20;;;;;;5078588;28;20233;-91
2024/02/01 04:31:35;;;;;;;42.27;19.90;;;5.00;93.20;;;;;;5078756;28;20624;-91
2024/02/01 04:34:01;;;;;;;39.27;20.20;;;5.00;93.20;;;;;;5078158;28;20166;-91
2024/02/01 04:36:27;;;;;;;40.30;12.80;;;4.90;93.10;;;;;;5078292;28;20174;-91
2024/02/01 04:38:54;;;;;;;39.77;12.60;;;4.90;93.20;;;;;;5078459;28;20197;-91
2024/02/01 04:41:19;;;;;;;49.50;14.40;;;4.80;93.20;;;;;;5078434;28;20179;-91
2024/02/01 04:43:45;;;;;;;50.77;14.63;;;4.80;93.20;;;;;;5077983;28;20179;-91
2024/02/01 04:46:11;;;;;;;53.27;13.70;;;4.80;93.20;;;;;;5078100;28;20174;-91
2024/02/01 04:48:36;;;;;;;32.37;13.07;;;4.80;93.20;;;;;;5077761;28;20732;-90
2024/02/01 04:51:02;;;;;;;37.37;14.93;;;4.80;93.20;;;;;;5078059;28;20284;-90
2024/02/01 04:53:27;;;;;;;37.30;11.93;;;4.70;93.20;;;;;;5076479;28;20693;-91
2024/02/01 04:55:53;;;;;;;43.13;12.63;;;4.60;93.20;;;;;;5077964;28;20170;-90
2024/02/01 04:58:20;;;;;;;50.33;12.37;;;4.70;93.20;;;;;;5077985;28;20670;-90
2024/02/01 05:00:46;;;;;;;40.17;11.87;;;4.70;93.30;;;;;;5077740;28;20194;-90
2024/02/01 05:03:14;;;;;;;39.30;11.20;;;4.70;93.30;;;;;;5077693;28;20554;-91
2024/02/01 05:05:45;;;;;;;39.43;11.43;;;4.70;93.20;;;;;;5078008;28;20184;-90
2024/02/01 05:08:12;;;;;;;40.13;11.23;;;4.60;93.20;;;;;;5078533;28;20170;-90
2024/02/01 05:10:39;;;;;;;39.33;10.77;;;4.60;93.30;;;;;;5077732;28;20620;-90
2024/02/01 05:13:05;;;;;;;44.73;11.63;;;4.70;93.30;;;;;;5077651;28;20182;-90
2024/02/01 05:15:30;;;;;;;47.07;10.93;;;4.60;93.20;;;;;;5078028;28;20182;-90
2024/02/01 05:17:56;;;;;;;45.70;11.67;;;4.60;93.10;;;;;;5077443;28;20190;-90
2024/02/01 05:20:22;;;;;;;48.43;11.47;;;4.60;93.00;;;;;;5078021;28;20208;-90
2024/02/01 05:22:47;;;;;;;46.43;11.63;;;4.60;93.00;;;;;;5077608;28;20205;-91
2024/02/01 05:25:15;;;;;;;48.23;12.30;;;4.50;93.10;;;;;;5077408;28;20645;-91
2024/02/01 05:27:50;;;;;;;38.13;10.90;;;4.60;93.10;;;;;;5077438;28;20553;-91
2024/02/01 05:30:17;;;;;;;49.93;11.37;;;4.50;93.10;;;;;;5077484;28;20215;-90
2024/02/01 05:32:52;;;;;;;34.27;11.03;;;4.60;93.10;;;;;;5077293;28;20213;-90
2024/02/01 05:35:26;;;;;;;41.97;11.43;;;4.60;93.10;;;;;;5077142;28;20170;-90
2024/02/01 05:37:52;;;;;;;36.63;10.47;;;4.50;93.00;;;;;;5077347;28;20185;-90
2024/02/01 05:40:18;;;;;;;37.60;9.80;;;4.50;93.00;;;;;;5077346;28;20198;-90
2024/02/01 05:42:44;;;;;;;40.30;11.63;;;4.50;93.00;;;;;;5077151;28;20240;-90
2024/02/01 05:45:10;;;;;;;41.40;13.37;;;4.50;93.00;;;;;;5077139;28;20235;-90
2024/02/01 05:47:36;;;;;;;40.47;10.33;;;4.50;92.90;;;;;;5077397;28;20178;-91
2024/02/01 05:50:01;;;;;;;46.87;12.43;;;4.40;92.90;;;;;;5076909;28;20385;-90
2024/02/01 05:52:26;;;;;;;45.93;10.30;;;4.40;92.90;;;;;;5077237;28;20201;-90
2024/02/01 05:54:54;;;;;;;38.23;11.37;;;4.40;92.90;;;;;;5077272;28;20179;-90
2024/02/01 05:57:20;;;;;;;37.93;10.00;;;4.40;93.00;;;;;;5076552;28;20174;-90
2024/02/01 05:59:46;;;;;;;33.53;9.47;;;4.50;92.90;;;;;;5076557;28;20214;-90
2024/02/01 06:02:11;;;;;;;37.07;11.03;;;4.60;92.80;;;;;;5076539;28;20185;-90
2024/02/01 06:04:37;;;;;;;37.07;10.47;;;4.50;92.70;;;;;;5076060;28;20178;-90
2024/02/01 06:07:04;;;;;;;33.83;11.07;;;4.50;92.70;;;;;;5076595;28;20234;-90
2024/02/01 06:09:30;;;;;;;41.17;10.30;;;4.50;92.80;;;;;;5076473;28;20208;-90
2024/02/01 06:11:56;;;;;;;30.40;9.97;;;4.50;92.80;;;;;;5076632;28;20205;-91
2024/02/01 06:14:22;;;;;;;32.63;10.07;;;4.50;92.80;;;;;;5076177;28;20235;-91
2024/02/01 06:16:47;;;;;;;36.93;10.10;;;4.50;92.80;;;;;;5076403;28;20267;-91
2024/02/01 06:19:13;;;;;;;29.07;9.17;;;4.50;92.80;;;;;;5076416;28;20288;-91
2024/02/01 06:21:38;;;;;;;44.17;11.53;;;4.60;92.80;;;;;;5076656;28;20639;-91
2024/02/01 06:24:05;;;;;;;;;;;4.50;92.80;;;;;;5076486;28;20672;-90
2024/02/01 06:26:30;;;;;;;;;;;4.60;92.90;;;;;;5095032;28;20425;-91
2024/02/01 06:28:59;;;;;;;;;;;4.50;92.80;;;;;;5076884;28;19904;-91
2024/02/01 06:31:25;;;;;;;;;;;4.50;93.00;;;;;;5076484;28;19908;-91
2024/02/01 06:33:51;;;;;;;;;;;4.50;93.00;;;;;;5076965;28;19911;-91
2024/02/01 06:36:19;;;;;;;;;;;4.50;93.00;;;;;;5076418;28;19933;-91
2024/02/01 06:38:55;;;;;;;;;;;4.60;93.00;;;;;;5076200;28;19957;-91
2024/02/01 06:44:20;;;;;;;41.03;16.93;;;4.50;92.80;;;;;;5094515;28;20024;-90
2024/02/01 06:52:13;;;;;;;51.40;19.17;;;4.50;92.70;;;;;;5094250;28;20720;-90
2024/02/01 06:54:50;;;;;;;53.07;19.13;;;4.50;92.70;;;;;;5076398;28;20164;-90
2024/02/01 06:57:18;;;;;;;49.07;17.77;;;4.40;92.60;;;;;;5075769;28;20162;-91
2024/02/01 07:00:06;;;;;;;41.63;18.97;;;4.40;92.60;;;;;;5075493;28;20193;-91
2024/02/01 07:02:35;;;;;;;47.03;18.67;;;4.50;92.60;;;;;;5093493;28;20174;-91
2024/02/01 07:05:21;;;;;;;46.13;18.63;;;4.50;92.40;;;;;;5075687;28;20165;-91
2024/02/01 07:07:49;;;;;;;48.50;19.53;;;4.50;92.40;;;;;;5075595;28;20249;-91
2024/02/01 07:10:21;;;;;;;43.77;17.97;;;4.50;92.30;;;;;;5093432;28;20599;-91
2024/02/01 07:15:31;;;;;;;41.40;18.00;;;4.60;92.10;;;;;;5093367;28;20183;-91
2024/02/01 07:18:14;;;;;;;45.90;18.63;;;4.50;92.00;;;;;;5075453;28;20649;-91
2024/02/01 07:25:49;;;;;;;44.57;16.97;;;4.50;92.00;;;;;;5093827;28;20594;-91
2024/02/01 07:58:38;;;;;;;50.73;14.30;;;4.60;91.40;;;;;;5093753;28;20193;-91
2024/02/01 08:01:14;;;;;;;41.70;13.73;;;4.70;91.50;;;;;;5075609;28;20272;-91
2024/02/01 08:03:55;;;;;;;39.23;13.33;;;4.70;91.40;;;;;;5076252;28;20161;-91
2024/02/01 08:09:11;;;;;;;50.13;15.03;;;4.70;91.50;;;;;;5093643;28;20232;-91
2024/02/01 08:11:38;;;;;;;52.53;14.47;;;4.70;91.50;;;;;;5074955;28;20193;-91
2024/02/01 08:14:06;;;;;;;52.53;14.00;;;4.70;91.50;;;;;;5075025;28;20595;-91
2024/02/01 08:16:32;;;;;;;49.80;13.47;;;4.80;91.50;;;;;;5075130;28;20262;-91
2024/02/01 08:18:59;;;;;;;42.53;13.90;;;4.80;91.50;;;;;;5075379;28;20225;-91
2024/02/01 08:21:26;;;;;;;48.20;13.77;;;4.80;91.50;;;;;;5075426;28;20178;-91
2024/02/01 08:23:54;;;;;;;41.13;11.87;;;4.80;91.50;;;;;;5074753;28;20231;-91
2024/02/01 08:26:21;;;;;;;48.23;13.40;;;4.90;91.30;;;;;;5074751;28;20182;-91
2024/02/01 08:28:47;;;;;;;54.50;16.17;;;4.90;91.20;;;;;;5078309;28;20242;-91
2024/02/01 08:31:17;;;;;;;46.57;14.13;;;4.90;91.20;;;;;;5078894;28;20669;-91
2024/02/01 08:33:44;;;;;;;37.17;12.57;;;5.00;91.20;;;;;;5096563;28;20165;-91
2024/02/01 08:36:12;;;;;;;37.97;12.60;;;5.00;91.20;;;;;;5078860;28;20174;-91
2024/02/01 08:38:38;;;;;;;56.27;13.30;;;5.00;91.40;;;;;;5078615;28;20696;-91
2024/02/01 08:41:05;;;;;;;43.67;14.17;;;5.00;91.30;;;;;;5078735;28;20673;-91
2024/02/01 08:43:30;;;;;;;38.63;12.97;;;5.10;91.30;;;;;;5078626;28;20182;-91
2024/02/01 08:45:56;;;;;;;46.27;13.23;;;5.10;91.30;;;;;;5078637;28;20189;-91
2024/02/01 08:48:24;;;;;;;48.10;14.37;;;5.10;91.30;;;;;;5077985;28;20186;-91
2024/02/01 08:50:54;;;;;;;51.43;15.20;;;5.10;91.30;;;;;;5078654;28;20241;-91
2024/02/01 08:53:22;;;;;;;45.73;14.20;;;5.10;91.40;;;;;;5078889;28;20201;-91
2024/02/01 08:55:52;;;;;;;53.17;15.67;;;5.20;91.40;;;;;;5093729;28;20174;-92
2024/02/01 08:58:20;;;;;;;57.70;14.87;;;5.10;91.40;;;;;;5088721;28;20167;-92
2024/02/01 09:00:46;;;;;;;49.13;14.03;;;5.20;91.40;;;;;;5081997;28;20206;-93
2024/02/01 09:03:15;;;;;;;40.50;13.27;;;5.30;91.30;;;;;;5080466;28;20174;-92
2024/02/01 09:05:42;;;;;;;46.70;13.70;;;5.30;91.30;;;;;;5083546;28;20163;-91
2024/02/01 09:08:12;;;;;;;36.60;13.47;;;5.30;91.20;;;;;;5078053;28;20181;-91
2024/02/01 09:10:38;;;;;;;50.57;13.83;;;5.40;91.20;;;;;;5078617;28;20190;-92
2024/02/01 09:13:05;;;;;;;52.97;17.80;;;5.40;91.20;;;;;;5078873;28;20190;-91
2024/02/01 09:15:31;;;;;;;51.43;15.37;;;5.40;91.20;;;;;;5078245;28;20576;-91
2024/02/01 09:17:57;;;;;;;61.23;16.63;;;5.40;91.20;;;;;;5078120;28;20228;-91
2024/02/01 09:20:25;;;;;;;52.70;14.97;;;5.50;91.30;;;;;;5077678;28;20202;-91
2024/02/01 09:22:55;;;;;;;60.07;16.03;;;5.60;91.30;;;;;;5077877;28;20685;-91
2024/02/01 09:25:22;;;;;;;46.87;14.23;;;5.60;91.30;;;;;;5078356;28;20577;-91
2024/02/01 09:27:49;;;;;;;52.87;15.93;;;5.70;91.10;;;;;;5077580;28;20591;-91
2024/02/01 09:30:17;;;;;;;57.03;16.53;;;5.80;91.00;;;;;;5095355;28;20212;-91
2024/02/01 09:32:49;;;;;;;41.80;14.27;;;5.80;90.90;;;;;;5077439;28;20206;-91
2024/02/01 09:35:19;;;;;;;53.87;15.60;;;5.90;90.90;;;;;;5077791;28;20171;-91
2024/02/01 09:37:45;;;;;;;51.70;17.10;;;5.90;90.90;;;;;;5077109;28;20178;-91
2024/02/01 09:40:11;;;;;;;44.23;15.10;;;5.90;90.90;;;;;;5076585;28;20708;-92
2024/02/01 09:42:38;;;;;;;59.37;14.33;;;6.00;90.80;;;;;;5077829;28;20179;-91
2024/02/01 09:45:05;;;;;;;51.90;17.37;;;6.10;90.90;;;;;;5077015;28;20299;-91
2024/02/01 09:47:43;;;;;;;48.20;16.87;;;6.10;90.60;;;;;;5077076;28;20185;-91
2024/02/01 09:50:20;;;;;;;51.27;16.80;;;6.20;90.10;;;;;;5077201;28;20233;-91
2024/02/01 09:52:49;;;;;;;51.03;16.27;;;6.30;89.80;;;;;;5202776;22;20227;-88
2024/02/01 09:55:19;;;;;;;53.93;17.70;;;6.30;89.70;;;;;;5073865;28;20175;-88
2024/02/01 09:57:50;;;;;;;50.97;16.73;;;6.30;89.50;;;;;;5074693;28;20160;-89
2024/02/01 10:00:22;;;;;;;48.13;16.97;;;6.40;89.50;;;;;;5073539;28;20170;-89
2024/02/01 10:02:53;;;;;;;54.23;17.57;;;6.50;89.50;;;;;;5074507;28;20300;-89
2024/02/01 10:05:22;;;;;;;48.73;17.80;;;6.50;89.20;;;;;;5073512;28;20175;-88
2024/02/01 10:07:52;;;;;;;41.70;17.60;;;6.70;89.10;;;;;;5074770;28;20175;-89
2024/02/01 10:10:20;;;;;;;62.00;25.50;;;6.70;88.70;;;;;;5073654;28;20175;-88
2024/02/01 10:12:46;;;;;;;42.87;25.17;;;6.70;88.30;;;;;;5074079;28;20241;-88
2024/02/01 10:15:15;;;;;;;49.83;26.60;;;6.80;88.00;;;;;;5073150;28;20172;-88
2024/02/01 10:17:47;;;;;;;47.63;27.87;;;6.90;88.00;;;;;;5074278;28;20172;-88
2024/02/01 10:20:39;;;;;;;59.53;26.00;;;6.90;87.40;;;;;;5073157;28;20156;-88
2024/02/01 10:23:10;;;;;;;55.40;27.77;;;6.90;87.10;;;;;;5073244;28;20205;-89
2024/02/01 10:25:39;;;;;;;49.43;27.20;;;7.00;86.50;;;;;;5073073;28;20258;-89
2024/02/01 10:28:08;;;;;;;51.70;26.70;;;7.00;86.70;;;;;;5073202;28;20172;-88
2024/02/01 10:30:40;;;;;;;44.60;25.37;;;7.10;86.50;;;;;;5074003;28;20663;-89
2024/02/01 10:33:07;;;;;;;40.53;25.73;;;7.10;86.40;;;;;;5073891;28;20238;-88
2024/02/01 10:35:34;;;;;;;51.83;28.67;;;7.20;86.30;;;;;;5072800;28;20175;-88
2024/02/01 10:38:01;;;;;;;47.23;29.20;;;7.20;85.60;;;;;;5073580;28;20571;-89
2024/02/01 10:40:39;;;;;;;44.93;30.10;;;7.30;85.80;;;;;;5072720;28;20176;-89
2024/02/01 10:43:05;;;;;;;46.00;29.53;;;7.30;84.60;;;;;;5072482;28;20191;-88
2024/02/01 10:45:35;;;;;;;57.90;31.47;;;7.40;83.90;;;;;;5073410;28;20178;-88
2024/02/01 10:48:09;;;;;;;50.00;31.90;;;7.50;84.30;;;;;;5073330;28;20228;-88
2024/02/01 10:50:37;;;;;;;47.10;30.77;;;7.60;83.70;;;;;;5072362;28;20163;-88
2024/02/01 10:53:06;;;;;;;49.43;33.80;;;7.70;83.70;;;;;;5072269;28;20636;-89
2024/02/01 10:55:32;;;;;;;58.90;33.03;;;7.70;83.20;;;;;;5072334;28;20175;-89
2024/02/01 10:57:59;;;;;;;45.70;35.77;;;7.70;82.60;;;;;;5073863;28;20182;-88
2024/02/01 11:00:27;;;;;;;37.90;21.87;;;7.70;80.60;;;;;;5072673;28;20182;-88
2024/02/01 11:02:55;;;;;;;37.67;22.77;;;7.80;81.40;;;;;;5073725;28;20191;-88
2024/02/01 11:05:29;;;;;;;38.43;22.73;;;7.80;80.60;;;;;;5072903;28;20207;-88
2024/02/01 11:07:55;;;;;;;30.67;21.60;;;8.00;81.60;;;;;;5073181;28;20257;-89
2024/02/01 11:10:23;;;;;;;42.57;23.47;;;8.00;80.40;;;;;;5073808;28;20172;-88
2024/02/01 11:12:54;;;;;;;47.63;24.67;;;8.00;80.10;;;;;;5072011;28;20214;-89
2024/02/01 11:15:25;;;;;;;37.13;23.83;;;7.90;79.50;;;;;;5072246;28;20631;-88
2024/02/01 11:17:51;;;;;;;43.37;25.37;;;8.00;78.80;;;;;;5072403;28;20617;-88
2024/02/01 11:20:25;;;;;;;30.60;21.73;;;8.00;77.90;;;;;;5072213;28;20243;-88
2024/02/01 11:22:58;;;;;;;42.50;22.67;;;8.10;78.70;;;;;;5072232;28;20206;-87
2024/02/01 11:25:28;;;;;;;37.50;25.47;;;8.20;78.80;;;;;;5072292;28;20244;-87
2024/02/01 11:27:53;;;;;;;37.40;23.47;;;8.20;78.40;;;;;;5072555;28;20237;-87
2024/02/01 11:30:31;;;;;;;41.70;24.90;;;8.10;77.40;;;;;;5072416;28;20554;-88
2024/02/01 11:32:57;;;;;;;45.23;23.57;;;8.00;77.50;;;;;;5072144;28;20195;-87
2024/02/01 11:35:23;;;;;;;42.60;24.47;;;8.00;77.50;;;;;;5072713;28;20179;-87
2024/02/01 11:38:01;;;;;;;37.23;24.00;;;7.90;77.80;;;;;;5073822;28;20178;-87
2024/02/01 11:40:32;;;;;;;36.30;24.17;;;8.00;78.90;;;;;;5073899;28;20202;-87
2024/02/01 11:42:59;;;;;;;41.33;25.67;;;7.80;78.70;;;;;;5072387;28;20291;-87
2024/02/01 11:45:25;;;;;;;39.03;24.23;;;7.90;79.70;;;;;;5071777;28;20301;-87
2024/02/01 11:47:53;;;;;;;31.53;23.40;;;7.80;79.70;;;;;;5073228;28;20221;-88
2024/02/01 11:50:23;;;;;;;36.67;22.53;;;7.80;79.90;;;;;;5072211;28;20643;-88
2024/02/01 11:52:58;;;;;;;36.30;23.30;;;7.90;79.70;;;;;;5072801;28;20584;-88
2024/02/01 11:55:27;;;;;;;30.83;22.03;;;7.90;79.20;;;;;;5073165;28;20174;-88
2024/02/01 11:57:59;;;;;;;36.97;24.00;;;8.10;79.30;;;;;;5073426;28;20342;-87
2024/02/01 12:00:24;;;;;;;39.40;23.60;;;8.20;79.30;;;;;;5072204;28;20175;-88
2024/02/01 12:02:51;;;;;;;38.23;23.13;;;8.10;78.90;;;;;;5074309;28;20195;-88
2024/02/01 12:05:20;;;;;;;36.37;23.10;;;8.20;78.70;;;;;;5077069;28;20175;-88
2024/02/01 12:07:47;;;;;;;43.53;25.20;;;8.30;79.40;;;;;;5075552;28;20183;-88
2024/02/01 12:10:16;;;;;;;35.00;23.83;;;8.30;79.20;;;;;;5075684;28;20187;-88
2024/02/01 12:12:44;;;;;;;46.23;24.50;;;8.00;79.30;;;;;;5077106;28;20290;-88
2024/02/01 12:15:11;;;;;;;37.00;22.77;;;8.10;79.50;;;;;;5076852;28;20671;-88
2024/02/01 12:17:46;;;;;;;24.10;21.60;;;8.00;79.90;;;;;;5076771;28;20164;-88
2024/02/01 12:20:13;;;;;;;30.50;22.10;;;7.90;79.80;;;;;;5075782;28;20187;-88
2024/02/01 12:22:39;;;;;;;34.90;22.93;;;8.00;79.10;;;;;;5075254;28;20206;-87
2024/02/01 12:25:15;;;;;;;40.63;22.67;;;8.10;80.00;;;;;;5076564;28;20175;-88
2024/02/01 12:27:45;;;;;;;39.90;23.30;;;8.00;80.30;;;;;;5075470;28;20164;-88
2024/02/01 12:30:14;;;;;;;36.57;22.33;;;8.00;80.00;;;;;;5075471;28;20171;-87
2024/02/01 12:32:46;;;;;;;34.30;21.70;;;8.00;80.10;;;;;;5076318;28;20202;-88
2024/02/01 12:35:14;;;;;;;33.53;20.40;;;7.90;80.40;;;;;;5076198;28;20528;-88
2024/02/01 12:37:43;;;;;;;36.37;21.40;;;7.90;80.20;;;;;;5075306;28;20171;-88
2024/02/01 12:40:17;;;;;;;36.03;19.73;;;7.90;80.50;;;;;;5075751;28;20224;-89
2024/02/01 12:42:45;;;;;;;32.63;21.43;;;8.00;80.20;;;;;;5074979;28;20713;-88
2024/02/01 12:45:20;;;;;;;37.10;21.63;;;7.90;80.10;;;;;;5074968;28;20719;-88
2024/02/01 12:47:51;;;;;;;44.23;21.93;;;8.00;80.30;;;;;;5076113;28;20617;-88
2024/02/01 12:50:17;;;;;;;42.37;21.30;;;7.90;80.60;;;;;;5076028;28;20169;-88
2024/02/01 12:52:44;;;;;;;34.57;21.03;;;8.10;80.60;;;;;;5074421;28;20244;-89
2024/02/01 12:55:10;;;;;;;48.40;22.87;;;8.10;80.00;;;;;;5075607;28;20534;-88
2024/02/01 12:57:37;;;;;;;29.30;20.87;;;8.10;80.50;;;;;;5074786;28;20646;-88
2024/02/01 13:00:05;;;;;;;33.37;20.70;;;8.10;79.70;;;;;;5074723;28;20263;-88
2024/02/01 13:02:31;;;;;;;42.23;22.80;;;8.10;80.00;;;;;;5075673;28;20345;-88
2024/02/01 13:04:57;;;;;;;39.17;30.27;;;8.30;80.50;;;;;;5074433;28;20225;-88
2024/02/01 13:07:22;;;;;;;42.00;32.50;;;8.20;79.90;;;;;;5074687;28;20183;-88
2024/02/01 13:09:48;;;;;;;52.67;35.80;;;8.30;79.70;;;;;;5074276;28;20179;-88
2024/02/01 13:12:21;;;;;;;42.33;31.63;;;8.30;79.30;;;;;;5074226;28;20713;-88
2024/02/01 13:15:00;;;;;;;52.47;33.27;;;8.30;79.80;;;;;;5073074;28;20258;-88
2024/02/01 13:17:35;;;;;;;34.10;30.50;;;8.30;79.40;;;;;;5074358;28;20546;-88
2024/02/01 13:20:03;;;;;;;41.07;31.13;;;8.20;79.00;;;;;;5074258;28;20189;-88
2024/02/01 13:22:29;;;;;;;44.73;30.33;;;8.10;79.40;;;;;;5074077;28;20223;-88
2024/02/01 13:24:55;;;;;;;37.97;31.07;;;8.30;79.50;;;;;;5074118;28;20211;-88
2024/02/01 13:27:20;;;;;;;37.87;31.43;;;8.30;79.00;;;;;;5075543;28;20201;-88
2024/02/01 13:29:46;;;;;;;48.47;31.93;;;8.40;78.70;;;;;;5073948;28;20180;-88